sensor_id;sensor_type;location;lat;lon;timestamp;pressure;altitude;pressure_sealevel;temperature;humidity
71559;BME280;59382;43.852;25.952;2022-07-23T00:01:30;101143.38;;;29.29;32.31
71559;BME280;59382;43.852;25.952;2022-07-23T00:03:55;101152.69;;;29.24;32.44
71559;BME280;59382;43.852;25.952;2022-07-23T00:06:22;101134.34;;;29.06;33.10
71559;BME280;59382;43.852;25.952;2022-07-23T00:08:48;101128.25;;;28.96;33.29
71559;BME280;59382;43.852;25.952;2022-07-23T00:11:13;101143.94;;;28.92;33.66
71559;BME280;59382;43.852;25.952;2022-07-23T00:13:39;101142.97;;;28.88;33.79
71559;BME280;59382;43.852;25.952;2022-07-23T00:16:05;101147.03;;;28.90;33.75
71559;BME280;59382;43.852;25.952;2022-07-23T00:18:31;101145.41;;;28.89;33.92
71559;BME280;59382;43.852;25.952;2022-07-23T00:20:57;101140.00;;;28.84;34.17
71559;BME280;59382;43.852;25.952;2022-07-23T00:23:22;101148.03;;;28.94;34.23
71559;BME280;59382;43.852;25.952;2022-07-23T00:25:51;101137.75;;;28.95;34.04
71559;BME280;59382;43.852;25.952;2022-07-23T00:28:17;101132.38;;;28.98;34.02
71559;BME280;59382;43.852;25.952;2022-07-23T00:30:44;101128.75;;;28.98;33.97
71559;BME280;59382;43.852;25.952;2022-07-23T00:33:10;101139.72;;;29.03;33.82
71559;BME280;59382;43.852;25.952;2022-07-23T00:35:40;101132.84;;;29.00;33.92
71559;BME280;59382;43.852;25.952;2022-07-23T00:38:07;101134.16;;;29.03;33.99
71559;BME280;59382;43.852;25.952;2022-07-23T00:40:33;101135.50;;;29.05;34.02
71559;BME280;59382;43.852;25.952;2022-07-23T00:42:59;101132.72;;;29.05;33.74
71559;BME280;59382;43.852;25.952;2022-07-23T00:45:26;101134.53;;;29.10;33.81
71559;BME280;59382;43.852;25.952;2022-07-23T00:47:51;101126.19;;;29.10;33.47
71559;BME280;59382;43.852;25.952;2022-07-23T00:50:17;101112.94;;;29.07;33.60
71559;BME280;59382;43.852;25.952;2022-07-23T00:52:43;101128.66;;;29.11;33.59
71559;BME280;59382;43.852;25.952;2022-07-23T00:55:10;101130.47;;;29.16;33.33
71559;BME280;59382;43.852;25.952;2022-07-23T00:57:37;101122.13;;;29.16;33.32
71559;BME280;59382;43.852;25.952;2022-07-23T01:00:08;101124.91;;;29.16;33.01
71559;BME280;59382;43.852;25.952;2022-07-23T01:02:34;101121.28;;;29.15;32.71
71559;BME280;59382;43.852;25.952;2022-07-23T01:05:00;101117.53;;;29.20;32.42
71559;BME280;59382;43.852;25.952;2022-07-23T01:07:26;101111.00;;;29.16;32.60
71559;BME280;59382;43.852;25.952;2022-07-23T01:09:54;101114.63;;;29.25;32.65
71559;BME280;59382;43.852;25.952;2022-07-23T01:12:20;101117.53;;;29.20;32.22
71559;BME280;59382;43.852;25.952;2022-07-23T01:14:54;101129.00;;;29.27;32.09
71559;BME280;59382;43.852;25.952;2022-07-23T01:17:20;101126.56;;;29.25;31.98
71559;BME280;59382;43.852;25.952;2022-07-23T01:19:46;101126.56;;;29.25;31.78
71559;BME280;59382;43.852;25.952;2022-07-23T01:22:11;101085.78;;;29.04;32.26
71559;BME280;59382;43.852;25.952;2022-07-23T01:24:37;101113.28;;;29.14;32.05
71559;BME280;59382;43.852;25.952;2022-07-23T01:27:03;101105.59;;;29.11;32.38
71559;BME280;59382;43.852;25.952;2022-07-23T01:29:30;101126.69;;;29.12;32.29
71559;BME280;59382;43.852;25.952;2022-07-23T01:31:56;101113.06;;;29.02;32.47
71559;BME280;59382;43.852;25.952;2022-07-23T01:34:22;101115.38;;;29.00;32.41
71559;BME280;59382;43.852;25.952;2022-07-23T01:36:47;101123.19;;;28.98;32.34
71559;BME280;59382;43.852;25.952;2022-07-23T01:39:13;101118.28;;;28.95;32.36
71559;BME280;59382;43.852;25.952;2022-07-23T01:41:38;101123.38;;;28.93;32.42
71559;BME280;59382;43.852;25.952;2022-07-23T01:44:04;101129.06;;;28.88;32.31
71559;BME280;59382;43.852;25.952;2022-07-23T01:46:30;101116.97;;;28.84;32.33
71559;BME280;59382;43.852;25.952;2022-07-23T01:48:55;101115.81;;;28.85;32.16
71559;BME280;59382;43.852;25.952;2022-07-23T01:51:21;101116.47;;;28.82;32.24
71559;BME280;59382;43.852;25.952;2022-07-23T01:53:46;101119.75;;;28.84;32.04
71559;BME280;59382;43.852;25.952;2022-07-23T01:56:12;101118.75;;;28.80;32.05
71559;BME280;59382;43.852;25.952;2022-07-23T01:58:40;101117.75;;;28.76;32.42
71559;BME280;59382;43.852;25.952;2022-07-23T02:01:06;101110.06;;;28.73;32.73
71559;BME280;59382;43.852;25.952;2022-07-23T02:03:31;101128.03;;;28.75;33.54
71559;BME280;59382;43.852;25.952;2022-07-23T02:05:57;101114.13;;;28.67;33.64
71559;BME280;59382;43.852;25.952;2022-07-23T02:08:24;101127.88;;;28.72;34.23
71559;BME280;59382;43.852;25.952;2022-07-23T02:10:49;101112.13;;;28.58;34.63
71559;BME280;59382;43.852;25.952;2022-07-23T02:13:17;101115.72;;;28.50;34.99
71559;BME280;59382;43.852;25.952;2022-07-23T02:15:42;101120.00;;;28.56;35.18
71559;BME280;59382;43.852;25.952;2022-07-23T02:18:08;101117.34;;;28.51;35.53
71559;BME280;59382;43.852;25.952;2022-07-23T02:20:34;101110.16;;;28.50;35.28
71559;BME280;59382;43.852;25.952;2022-07-23T02:22:59;101104.25;;;28.43;35.33
71559;BME280;59382;43.852;25.952;2022-07-23T02:25:28;101105.25;;;28.47;34.62
71559;BME280;59382;43.852;25.952;2022-07-23T02:27:53;101092.63;;;28.41;34.61
71559;BME280;59382;43.852;25.952;2022-07-23T02:30:19;101094.75;;;28.44;33.88
71559;BME280;59382;43.852;25.952;2022-07-23T02:32:44;101113.41;;;28.52;33.50
71559;BME280;59382;43.852;25.952;2022-07-23T02:35:10;101105.41;;;28.51;33.23
71559;BME280;59382;43.852;25.952;2022-07-23T02:37:35;101117.34;;;28.51;32.88
71559;BME280;59382;43.852;25.952;2022-07-23T02:40:01;101112.63;;;28.52;32.68
71559;BME280;59382;43.852;25.952;2022-07-23T02:42:27;101103.63;;;28.46;32.44
71559;BME280;59382;43.852;25.952;2022-07-23T02:44:53;101118.34;;;28.55;32.54
71559;BME280;59382;43.852;25.952;2022-07-23T02:47:18;101110.50;;;28.57;32.14
71559;BME280;59382;43.852;25.952;2022-07-23T02:49:44;101110.66;;;28.52;32.08
71559;BME280;59382;43.852;25.952;2022-07-23T02:52:09;101108.38;;;28.54;31.96
71559;BME280;59382;43.852;25.952;2022-07-23T02:54:40;101128.97;;;28.62;32.40
71559;BME280;59382;43.852;25.952;2022-07-23T02:57:06;101122.91;;;28.60;32.38
71559;BME280;59382;43.852;25.952;2022-07-23T02:59:31;101104.63;;;28.50;32.16
71559;BME280;59382;43.852;25.952;2022-07-23T03:01:57;101126.22;;;28.62;31.95
71559;BME280;59382;43.852;25.952;2022-07-23T03:04:23;101118.72;;;28.63;31.76
71559;BME280;59382;43.852;25.952;2022-07-23T03:06:48;101103.97;;;28.53;31.82
71559;BME280;59382;43.852;25.952;2022-07-23T03:09:14;101117.38;;;28.60;31.44
71559;BME280;59382;43.852;25.952;2022-07-23T03:11:40;101122.56;;;28.53;31.85
71559;BME280;59382;43.852;25.952;2022-07-23T03:14:05;101143.19;;;28.60;32.09
71559;BME280;59382;43.852;25.952;2022-07-23T03:16:32;101134.66;;;28.48;32.46
71559;BME280;59382;43.852;25.952;2022-07-23T03:18:58;101150.53;;;28.56;32.26
71559;BME280;59382;43.852;25.952;2022-07-23T03:21:23;101142.97;;;28.48;32.61
71559;BME280;59382;43.852;25.952;2022-07-23T03:23:51;101146.56;;;28.49;32.89
71559;BME280;59382;43.852;25.952;2022-07-23T03:26:17;101142.13;;;28.48;33.44
71559;BME280;59382;43.852;25.952;2022-07-23T03:28:43;101157.53;;;28.54;33.59
71559;BME280;59382;43.852;25.952;2022-07-23T03:31:08;101159.00;;;28.51;33.76
71559;BME280;59382;43.852;25.952;2022-07-23T03:33:34;101159.31;;;28.50;34.05
71559;BME280;59382;43.852;25.952;2022-07-23T03:36:00;101160.78;;;28.47;34.28
71559;BME280;59382;43.852;25.952;2022-07-23T03:38:25;101149.63;;;28.39;34.34
71559;BME280;59382;43.852;25.952;2022-07-23T03:40:51;101173.81;;;28.47;34.34
71559;BME280;59382;43.852;25.952;2022-07-23T03:43:16;101155.16;;;28.39;34.29
71559;BME280;59382;43.852;25.952;2022-07-23T03:45:42;101154.34;;;28.38;34.30
71559;BME280;59382;43.852;25.952;2022-07-23T03:48:08;101174.16;;;28.45;34.19
71559;BME280;59382;43.852;25.952;2022-07-23T03:50:33;101181.97;;;28.43;34.35
71559;BME280;59382;43.852;25.952;2022-07-23T03:53:00;101176.41;;;28.43;34.66
71559;BME280;59382;43.852;25.952;2022-07-23T03:55:25;101169.47;;;28.32;35.01
71559;BME280;59382;43.852;25.952;2022-07-23T03:57:51;101167.84;;;28.31;35.12
71559;BME280;59382;43.852;25.952;2022-07-23T04:00:16;101168.50;;;28.28;35.22
71559;BME280;59382;43.852;25.952;2022-07-23T04:02:42;101184.00;;;28.29;35.09
71559;BME280;59382;43.852;25.952;2022-07-23T04:05:07;101189.22;;;28.31;35.27
71559;BME280;59382;43.852;25.952;2022-07-23T04:07:33;101179.41;;;28.25;35.41
71559;BME280;59382;43.852;25.952;2022-07-23T04:10:00;101191.13;;;28.22;35.89
71559;BME280;59382;43.852;25.952;2022-07-23T04:12:26;101197.00;;;28.20;35.68
71559;BME280;59382;43.852;25.952;2022-07-23T04:14:51;101197.13;;;28.15;35.96
71559;BME280;59382;43.852;25.952;2022-07-23T04:17:17;101214.16;;;28.22;36.05
71559;BME280;59382;43.852;25.952;2022-07-23T04:19:42;101205.31;;;28.20;35.79
71559;BME280;59382;43.852;25.952;2022-07-23T04:22:12;101205.53;;;28.24;35.99
71559;BME280;59382;43.852;25.952;2022-07-23T04:24:37;101187.69;;;28.16;35.80
71559;BME280;59382;43.852;25.952;2022-07-23T04:27:03;101193.22;;;28.16;36.00
71559;BME280;59382;43.852;25.952;2022-07-23T04:29:29;101195.06;;;28.21;35.69
71559;BME280;59382;43.852;25.952;2022-07-23T04:31:55;101198.16;;;28.19;36.27
71559;BME280;59382;43.852;25.952;2022-07-23T04:34:20;101163.25;;;28.05;36.07
71559;BME280;59382;43.852;25.952;2022-07-23T04:36:46;101193.41;;;28.20;36.25
71559;BME280;59382;43.852;25.952;2022-07-23T04:39:11;101205.31;;;28.20;36.41
71559;BME280;59382;43.852;25.952;2022-07-23T04:41:37;101210.25;;;28.23;36.38
71559;BME280;59382;43.852;25.952;2022-07-23T04:44:03;101200.59;;;28.21;36.25
71559;BME280;59382;43.852;25.952;2022-07-23T04:46:28;101210.44;;;28.27;36.32
71559;BME280;59382;43.852;25.952;2022-07-23T04:48:54;101221.53;;;28.27;36.37
71559;BME280;59382;43.852;25.952;2022-07-23T04:51:19;101223.16;;;28.28;36.37
71559;BME280;59382;43.852;25.952;2022-07-23T04:53:45;101222.53;;;28.31;36.62
71559;BME280;59382;43.852;25.952;2022-07-23T04:56:11;101225.19;;;28.36;36.37
71559;BME280;59382;43.852;25.952;2022-07-23T04:58:36;101217.81;;;28.31;36.04
71559;BME280;59382;43.852;25.952;2022-07-23T05:01:03;101227.47;;;28.34;35.84
71559;BME280;59382;43.852;25.952;2022-07-23T05:03:29;101231.53;;;28.36;35.83
71559;BME280;59382;43.852;25.952;2022-07-23T05:05:55;101241.78;;;28.49;35.48
71559;BME280;59382;43.852;25.952;2022-07-23T05:08:20;101228.22;;;28.48;35.00
71559;BME280;59382;43.852;25.952;2022-07-23T05:10:47;101238.88;;;28.54;35.14
71559;BME280;59382;43.852;25.952;2022-07-23T05:13:14;101248.72;;;28.60;34.95
71559;BME280;59382;43.852;25.952;2022-07-23T05:15:40;101246.44;;;28.63;34.86
71559;BME280;59382;43.852;25.952;2022-07-23T05:18:05;101249.69;;;28.64;34.63
71559;BME280;59382;43.852;25.952;2022-07-23T05:20:31;101253.81;;;28.67;34.75
71559;BME280;59382;43.852;25.952;2022-07-23T05:22:57;101244.03;;;28.70;34.41
71559;BME280;59382;43.852;25.952;2022-07-23T05:25:22;101249.44;;;28.75;34.47
71559;BME280;59382;43.852;25.952;2022-07-23T05:27:48;101251.59;;;28.78;34.47
71559;BME280;59382;43.852;25.952;2022-07-23T05:30:13;101245.53;;;28.76;34.30
71559;BME280;59382;43.852;25.952;2022-07-23T05:32:39;101253.09;;;28.84;34.30
71559;BME280;59382;43.852;25.952;2022-07-23T05:35:06;101246.50;;;28.80;34.33
71559;BME280;59382;43.852;25.952;2022-07-23T05:37:31;101250.16;;;28.89;34.45
71559;BME280;59382;43.852;25.952;2022-07-23T05:40:08;101260.63;;;28.92;34.23
71559;BME280;59382;43.852;25.952;2022-07-23T05:42:52;101267.16;;;28.96;34.44
71559;BME280;59382;43.852;25.952;2022-07-23T05:45:22;101266.72;;;29.02;34.23
71559;BME280;59382;43.852;25.952;2022-07-23T05:47:50;101253.97;;;29.01;34.08
71559;BME280;59382;43.852;25.952;2022-07-23T05:50:22;101236.59;;;28.96;33.84
71559;BME280;59382;43.852;25.952;2022-07-23T05:53:27;101261.09;;;29.16;33.26
71559;BME280;59382;43.852;25.952;2022-07-23T05:55:57;101264.06;;;29.28;33.31
71559;BME280;59382;43.852;25.952;2022-07-23T05:59:18;101262.13;;;29.37;33.09
71559;BME280;59382;43.852;25.952;2022-07-23T06:01:46;101255.78;;;29.53;32.78
71559;BME280;59382;43.852;25.952;2022-07-23T06:04:12;101251.75;;;29.68;32.66
71559;BME280;59382;43.852;25.952;2022-07-23T06:06:38;101247.97;;;29.89;32.27
71559;BME280;59382;43.852;25.952;2022-07-23T06:09:16;101230.63;;;30.09;32.00
71559;BME280;59382;43.852;25.952;2022-07-23T06:11:42;101250.06;;;30.52;31.19
71559;BME280;59382;43.852;25.952;2022-07-23T06:14:07;101261.81;;;30.83;31.02
71559;BME280;59382;43.852;25.952;2022-07-23T06:16:33;101257.44;;;31.11;30.53
71559;BME280;59382;43.852;25.952;2022-07-23T06:18:59;101257.47;;;31.40;30.40
71559;BME280;59382;43.852;25.952;2022-07-23T06:21:24;101260.94;;;31.66;30.53
71559;BME280;59382;43.852;25.952;2022-07-23T06:23:50;101266.19;;;31.88;30.01
71559;BME280;59382;43.852;25.952;2022-07-23T06:26:15;101267.00;;;32.09;30.31
71559;BME280;59382;43.852;25.952;2022-07-23T06:28:41;101263.56;;;32.24;30.30
71559;BME280;59382;43.852;25.952;2022-07-23T06:31:06;101268.19;;;32.41;30.22
71559;BME280;59382;43.852;25.952;2022-07-23T06:33:33;101267.34;;;32.61;30.68
71559;BME280;59382;43.852;25.952;2022-07-23T06:35:59;101267.03;;;32.75;30.53
71559;BME280;59382;43.852;25.952;2022-07-23T06:38:25;101276.63;;;32.98;30.60
71559;BME280;59382;43.852;25.952;2022-07-23T06:40:51;101273.63;;;33.15;29.48
71559;BME280;59382;43.852;25.952;2022-07-23T06:43:17;101258.47;;;33.28;28.88
71559;BME280;59382;43.852;25.952;2022-07-23T06:45:43;101263.50;;;33.46;28.82
71559;BME280;59382;43.852;25.952;2022-07-23T06:48:08;101262.69;;;33.58;28.33
71559;BME280;59382;43.852;25.952;2022-07-23T06:50:34;101264.28;;;33.71;27.89
71559;BME280;59382;43.852;25.952;2022-07-23T06:52:59;101261.91;;;33.85;27.95
71559;BME280;59382;43.852;25.952;2022-07-23T06:55:25;101266.34;;;33.98;27.63
71559;BME280;59382;43.852;25.952;2022-07-23T06:57:51;101262.06;;;34.16;27.49
71559;BME280;59382;43.852;25.952;2022-07-23T07:00:16;101260.84;;;34.29;26.69
71559;BME280;59382;43.852;25.952;2022-07-23T07:02:42;101270.59;;;34.47;26.08
71559;BME280;59382;43.852;25.952;2022-07-23T07:05:07;101263.03;;;34.63;26.12
71559;BME280;59382;43.852;25.952;2022-07-23T07:07:34;101261.34;;;34.74;26.22
71559;BME280;59382;43.852;25.952;2022-07-23T07:09:59;101275.38;;;34.90;25.91
71559;BME280;59382;43.852;25.952;2022-07-23T07:12:25;101275.66;;;35.00;25.61
71559;BME280;59382;43.852;25.952;2022-07-23T07:14:50;101273.47;;;35.09;25.42
71559;BME280;59382;43.852;25.952;2022-07-23T07:17:16;101272.94;;;35.19;25.17
71559;BME280;59382;43.852;25.952;2022-07-23T07:19:42;101266.78;;;35.29;25.14
71559;BME280;59382;43.852;25.952;2022-07-23T07:22:07;101273.47;;;35.40;24.91
71559;BME280;59382;43.852;25.952;2022-07-23T07:24:33;101261.97;;;35.45;24.78
71559;BME280;59382;43.852;25.952;2022-07-23T07:26:59;101252.09;;;35.51;24.42
71559;BME280;59382;43.852;25.952;2022-07-23T07:29:24;101262.03;;;35.64;24.85
71559;BME280;59382;43.852;25.952;2022-07-23T07:31:50;101253.31;;;35.69;24.63
71559;BME280;59382;43.852;25.952;2022-07-23T07:34:15;101243.56;;;35.63;24.36
71559;BME280;59382;43.852;25.952;2022-07-23T07:36:41;101259.09;;;35.77;24.32
71559;BME280;59382;43.852;25.952;2022-07-23T07:39:08;101254.47;;;35.84;24.22
71559;BME280;59382;43.852;25.952;2022-07-23T07:41:36;101227.00;;;35.78;23.85
71559;BME280;59382;43.852;25.952;2022-07-23T07:44:01;101244.22;;;35.92;23.99
71559;BME280;59382;43.852;25.952;2022-07-23T07:46:27;101253.28;;;36.04;23.87
71559;BME280;59382;43.852;25.952;2022-07-23T07:48:53;101255.00;;;36.09;23.90
71559;BME280;59382;43.852;25.952;2022-07-23T07:51:19;101252.63;;;36.11;23.82
71559;BME280;59382;43.852;25.952;2022-07-23T07:53:44;101237.84;;;35.95;23.69
71559;BME280;59382;43.852;25.952;2022-07-23T07:56:10;101239.47;;;35.96;24.11
71559;BME280;59382;43.852;25.952;2022-07-23T07:58:36;101230.63;;;35.94;23.92
71559;BME280;59382;43.852;25.952;2022-07-23T08:01:01;101236.38;;;36.01;23.85
71559;BME280;59382;43.852;25.952;2022-07-23T08:03:28;101235.91;;;35.99;23.46
71559;BME280;59382;43.852;25.952;2022-07-23T08:05:53;101236.06;;;35.87;23.65
71559;BME280;59382;43.852;25.952;2022-07-23T08:08:19;101240.06;;;35.86;23.65
71559;BME280;59382;43.852;25.952;2022-07-23T08:10:44;101234.00;;;35.84;23.34
71559;BME280;59382;43.852;25.952;2022-07-23T08:13:15;101240.44;;;35.84;23.24
71559;BME280;59382;43.852;25.952;2022-07-23T08:15:41;101230.13;;;35.72;23.25
71559;BME280;59382;43.852;25.952;2022-07-23T08:18:07;101228.41;;;35.68;23.05
71559;BME280;59382;43.852;25.952;2022-07-23T08:20:33;101232.34;;;35.63;23.09
71559;BME280;59382;43.852;25.952;2022-07-23T08:23:02;101224.63;;;35.60;23.49
71559;BME280;59382;43.852;25.952;2022-07-23T08:25:30;101210.06;;;35.55;23.67
71559;BME280;59382;43.852;25.952;2022-07-23T08:27:58;101213.84;;;35.62;23.83
71559;BME280;59382;43.852;25.952;2022-07-23T08:30:24;101215.25;;;35.72;23.58
71559;BME280;59382;43.852;25.952;2022-07-23T08:32:51;101216.38;;;35.67;23.56
71559;BME280;59382;43.852;25.952;2022-07-23T08:35:20;101212.50;;;35.56;23.69
71559;BME280;59382;43.852;25.952;2022-07-23T08:37:46;101205.47;;;35.47;23.96
71559;BME280;59382;43.852;25.952;2022-07-23T08:40:12;101199.03;;;35.46;23.96
71559;BME280;59382;43.852;25.952;2022-07-23T08:42:37;101197.94;;;35.51;24.17
71559;BME280;59382;43.852;25.952;2022-07-23T08:45:03;101205.88;;;35.64;23.83
71559;BME280;59382;43.852;25.952;2022-07-23T08:47:29;101209.38;;;35.77;23.94
71559;BME280;59382;43.852;25.952;2022-07-23T08:49:56;101209.16;;;35.86;23.97
71559;BME280;59382;43.852;25.952;2022-07-23T08:52:24;101200.88;;;35.93;23.79
71559;BME280;59382;43.852;25.952;2022-07-23T08:54:50;101196.13;;;35.97;23.83
71559;BME280;59382;43.852;25.952;2022-07-23T08:57:16;101201.31;;;36.14;23.60
71559;BME280;59382;43.852;25.952;2022-07-23T08:59:42;101206.31;;;36.24;23.74
71559;BME280;59382;43.852;25.952;2022-07-23T09:02:08;101192.72;;;36.26;23.06
71559;BME280;59382;43.852;25.952;2022-07-23T09:04:34;101195.16;;;36.27;23.17
71559;BME280;59382;43.852;25.952;2022-07-23T09:07:01;101198.50;;;36.33;23.04
71559;BME280;59382;43.852;25.952;2022-07-23T09:09:26;101193.78;;;36.37;23.35
71559;BME280;59382;43.852;25.952;2022-07-23T09:12:06;101186.97;;;36.38;23.13
71559;BME280;59382;43.852;25.952;2022-07-23T09:14:44;101205.25;;;36.51;22.92
71559;BME280;59382;43.852;25.952;2022-07-23T09:17:17;101190.53;;;36.57;22.94
71559;BME280;59382;43.852;25.952;2022-07-23T09:19:44;101195.16;;;36.69;23.03
71559;BME280;59382;43.852;25.952;2022-07-23T09:22:24;101182.28;;;36.68;22.84
71559;BME280;59382;43.852;25.952;2022-07-23T09:25:13;101189.75;;;36.79;22.68
71559;BME280;59382;43.852;25.952;2022-07-23T09:30:14;101193.16;;;36.92;22.47
71559;BME280;59382;43.852;25.952;2022-07-23T09:32:39;101190.72;;;36.90;22.67
71559;BME280;59382;43.852;25.952;2022-07-23T09:35:06;101185.16;;;36.94;22.60
71559;BME280;59382;43.852;25.952;2022-07-23T09:37:31;101182.66;;;36.89;22.47
71559;BME280;59382;43.852;25.952;2022-07-23T09:40:05;101189.16;;;36.93;21.99
71559;BME280;59382;43.852;25.952;2022-07-23T09:42:32;101165.78;;;36.89;22.48
71559;BME280;59382;43.852;25.952;2022-07-23T09:44:58;101182.88;;;37.03;22.23
71559;BME280;59382;43.852;25.952;2022-07-23T09:47:31;101182.13;;;37.06;21.87
71559;BME280;59382;43.852;25.952;2022-07-23T09:50:05;101170.88;;;37.06;21.72
71559;BME280;59382;43.852;25.952;2022-07-23T09:52:35;101177.91;;;37.19;21.54
71559;BME280;59382;43.852;25.952;2022-07-23T09:55:04;101168.72;;;37.22;21.51
71559;BME280;59382;43.852;25.952;2022-07-23T09:57:31;101157.16;;;37.27;21.51
71559;BME280;59382;43.852;25.952;2022-07-23T10:00:00;101161.81;;;37.42;21.31
71559;BME280;59382;43.852;25.952;2022-07-23T10:02:28;101152.91;;;37.40;21.33
71559;BME280;59382;43.852;25.952;2022-07-23T10:04:54;101159.84;;;37.46;20.89
71559;BME280;59382;43.852;25.952;2022-07-23T10:07:24;101145.75;;;37.46;21.23
71559;BME280;59382;43.852;25.952;2022-07-23T10:09:52;101151.81;;;37.48;21.04
71559;BME280;59382;43.852;25.952;2022-07-23T10:12:19;101136.88;;;37.44;20.74
71559;BME280;59382;43.852;25.952;2022-07-23T10:14:51;101147.44;;;37.51;21.10
71559;BME280;59382;43.852;25.952;2022-07-23T10:17:18;101137.69;;;37.44;21.16
71559;BME280;59382;43.852;25.952;2022-07-23T10:19:44;101136.41;;;37.38;21.18
71559;BME280;59382;43.852;25.952;2022-07-23T10:22:15;101137.16;;;37.35;20.86
71559;BME280;59382;43.852;25.952;2022-07-23T10:33:00;101135.59;;;37.12;21.01
71559;BME280;59382;43.852;25.952;2022-07-23T10:35:31;101107.16;;;36.91;20.59
71559;BME280;59382;43.852;25.952;2022-07-23T10:38:11;101131.38;;;36.99;20.84
71559;BME280;59382;43.852;25.952;2022-07-23T10:40:59;101129.75;;;36.98;20.65
71559;BME280;59382;43.852;25.952;2022-07-23T10:43:26;101113.63;;;36.95;20.95
71559;BME280;59382;43.852;25.952;2022-07-23T10:45:52;101119.41;;;37.05;20.86
71559;BME280;59382;43.852;25.952;2022-07-23T10:51:14;101119.16;;;37.14;20.80
71559;BME280;59382;43.852;25.952;2022-07-23T10:56:15;101108.69;;;37.14;20.98
71559;BME280;59382;43.852;25.952;2022-07-23T10:58:50;101100.97;;;37.08;20.90
71559;BME280;59382;43.852;25.952;2022-07-23T11:01:43;101097.72;;;37.06;20.86
71559;BME280;59382;43.852;25.952;2022-07-23T11:04:13;101095.72;;;37.06;20.99
71559;BME280;59382;43.852;25.952;2022-07-23T11:15:12;101077.59;;;37.04;20.53
71559;BME280;59382;43.852;25.952;2022-07-23T11:20:19;101085.25;;;37.07;20.34
71559;BME280;59382;43.852;25.952;2022-07-23T11:27:56;101071.09;;;37.00;20.11
71559;BME280;59382;43.852;25.952;2022-07-23T11:35:35;101070.25;;;36.96;20.43
71559;BME280;59382;43.852;25.952;2022-07-23T11:38:07;101072.31;;;36.99;20.31
71559;BME280;59382;43.852;25.952;2022-07-23T11:40:34;101066.19;;;36.93;20.07
71559;BME280;59382;43.852;25.952;2022-07-23T11:43:10;101071.88;;;36.97;20.38
71559;BME280;59382;43.852;25.952;2022-07-23T11:45:41;101056.03;;;36.85;20.15
71559;BME280;59382;43.852;25.952;2022-07-23T11:48:21;101068.53;;;36.88;20.14
71559;BME280;59382;43.852;25.952;2022-07-23T11:50:49;101055.56;;;36.80;20.16
71559;BME280;59382;43.852;25.952;2022-07-23T11:53:24;101067.66;;;36.84;20.17
71559;BME280;59382;43.852;25.952;2022-07-23T11:55:50;101061.94;;;36.77;19.81
71559;BME280;59382;43.852;25.952;2022-07-23T11:58:16;101059.53;;;36.79;20.09
71559;BME280;59382;43.852;25.952;2022-07-23T12:00:43;101058.69;;;36.75;20.07
71559;BME280;59382;43.852;25.952;2022-07-23T12:03:09;101051.34;;;36.70;20.13
71559;BME280;59382;43.852;25.952;2022-07-23T12:05:39;101057.09;;;36.74;20.06
71559;BME280;59382;43.852;25.952;2022-07-23T12:08:08;101052.97;;;36.71;20.12
71559;BME280;59382;43.852;25.952;2022-07-23T12:10:44;101054.69;;;36.76;19.99
71559;BME280;59382;43.852;25.952;2022-07-23T12:13:27;101056.31;;;36.77;19.92
71559;BME280;59382;43.852;25.952;2022-07-23T12:15:57;101037.69;;;36.69;19.93
71559;BME280;59382;43.852;25.952;2022-07-23T12:18:25;101029.56;;;36.64;19.83
71559;BME280;59382;43.852;25.952;2022-07-23T12:20:53;101030.38;;;36.64;19.97
71559;BME280;59382;43.852;25.952;2022-07-23T12:23:26;101035.94;;;36.61;19.96
71559;BME280;59382;43.852;25.952;2022-07-23T12:25:53;101040.03;;;36.67;20.00
71559;BME280;59382;43.852;25.952;2022-07-23T12:30:57;101019.72;;;36.51;20.00
71559;BME280;59382;43.852;25.952;2022-07-23T12:35:59;101021.88;;;36.61;20.02
71559;BME280;59382;43.852;25.952;2022-07-23T12:38:28;101034.31;;;36.60;20.03
71559;BME280;59382;43.852;25.952;2022-07-23T12:41:01;101026.25;;;36.58;20.10
71559;BME280;59382;43.852;25.952;2022-07-23T12:43:35;101000.31;;;36.42;20.09
71559;BME280;59382;43.852;25.952;2022-07-23T12:46:20;101031.06;;;36.58;20.34
71559;BME280;59382;43.852;25.952;2022-07-23T12:53:54;101008.38;;;36.44;20.28
71559;BME280;59382;43.852;25.952;2022-07-23T12:56:44;101011.59;;;36.46;20.39
71559;BME280;59382;43.852;25.952;2022-07-23T12:59:14;101014.84;;;36.48;20.17
71559;BME280;59382;43.852;25.952;2022-07-23T13:01:53;101008.41;;;36.47;20.08
71559;BME280;59382;43.852;25.952;2022-07-23T13:04:20;101006.31;;;36.41;20.25
71559;BME280;59382;43.852;25.952;2022-07-23T13:06:49;101004.38;;;36.45;19.82
71559;BME280;59382;43.852;25.952;2022-07-23T13:09:26;100995.00;;;36.37;19.84
71559;BME280;59382;43.852;25.952;2022-07-23T13:11:54;101001.91;;;36.40;20.42
71559;BME280;59382;43.852;25.952;2022-07-23T13:14:21;101002.31;;;36.42;20.21
71559;BME280;59382;43.852;25.952;2022-07-23T13:16:53;100988.91;;;36.32;20.07
71559;BME280;59382;43.852;25.952;2022-07-23T13:19:23;100989.34;;;36.34;20.22
71559;BME280;59382;43.852;25.952;2022-07-23T13:21:49;100984.22;;;36.39;19.97
71559;BME280;59382;43.852;25.952;2022-07-23T13:24:15;100997.91;;;36.41;20.24
71559;BME280;59382;43.852;25.952;2022-07-23T13:26:41;100972.88;;;36.32;20.04
71559;BME280;59382;43.852;25.952;2022-07-23T13:29:10;100984.13;;;36.32;20.13
71559;BME280;59382;43.852;25.952;2022-07-23T13:31:37;100977.28;;;36.33;20.01